createdAt,value
2023-03-01T00:01:17.677Z,32.47
2023-03-01T00:03:45.285Z,31.98
2023-03-01T00:06:12.858Z,31.25
2023-03-01T00:08:40.123Z,30.52
2023-03-01T00:11:22.210Z,30.85
2023-03-01T00:13:50.718Z,32.55
2023-03-01T00:16:26.017Z,30.80
2023-03-01T00:18:53.249Z,31.75
2023-03-01T00:21:23.050Z,29.77
2023-03-01T00:23:50.609Z,31.95
2023-03-01T00:26:19.200Z,30.20
2023-03-01T00:28:46.599Z,31.10
2023-03-01T00:31:16.861Z,30.30
2023-03-01T00:33:44.451Z,29.08
2023-03-01T00:36:13.032Z,30.17
2023-03-01T00:38:42.133Z,30.35
2023-03-01T00:41:12.035Z,31.02
2023-03-01T00:43:39.385Z,30.40
2023-03-01T00:46:12.597Z,28.98
2023-03-01T00:48:39.788Z,29.15
2023-03-01T00:51:18.344Z,29.15
2023-03-01T00:53:46.633Z,31.17
2023-03-01T00:56:15.639Z,28.65
2023-03-01T00:58:43.045Z,29.45
2023-03-01T01:01:28.633Z,30.23
2023-03-01T01:03:58.909Z,28.27
2023-03-01T01:06:29.386Z,29.85
2023-03-01T01:08:57.480Z,29.77
2023-03-01T01:11:26.472Z,30.55
2023-03-01T01:13:54.200Z,29.90
2023-03-01T01:16:22.874Z,30.35
2023-03-01T01:18:50.889Z,28.55
2023-03-01T01:21:20.686Z,31.58
2023-03-01T01:23:48.274Z,30.23
2023-03-01T01:26:18.801Z,28.77
2023-03-01T01:28:46.216Z,28.52
2023-03-01T01:31:13.238Z,31.50
2023-03-01T01:33:40.332Z,30.60
2023-03-01T01:36:08.639Z,30.08
2023-03-01T01:38:36.635Z,31.60
2023-03-01T01:41:03.936Z,30.63
2023-03-01T01:43:37.132Z,30.25
2023-03-01T01:46:24.478Z,31.67
2023-03-01T01:48:56.086Z,30.75
2023-03-01T01:51:28.398Z,31.10
2023-03-01T01:54:01.612Z,30.80
2023-03-01T01:56:30.274Z,31.17
2023-03-01T01:58:57.792Z,30.80
2023-03-01T02:01:25.137Z,32.35
2023-03-01T02:03:52.795Z,32.55
2023-03-01T02:06:33.677Z,33.05
2023-03-01T02:09:05.658Z,30.58
2023-03-01T02:11:33.457Z,30.60
2023-03-01T02:14:00.752Z,29.35
2023-03-01T02:16:28.357Z,29.85
2023-03-01T02:18:55.862Z,30.30
2023-03-01T02:21:23.034Z,28.75
2023-03-01T02:23:49.984Z,28.42
2023-03-01T02:26:32.424Z,26.65
2023-03-01T02:29:00.311Z,29.13
2023-03-01T02:31:42.615Z,27.85
2023-03-01T02:34:16.742Z,28.47
2023-03-01T02:36:46.351Z,28.38
2023-03-01T02:39:19.703Z,30.13
2023-03-01T02:41:52.776Z,28.38
2023-03-01T02:46:55.272Z,26.67
2023-03-01T02:49:22.616Z,28.98
2023-03-01T02:52:15.851Z,28.90
2023-03-01T02:54:43.110Z,27.67
2023-03-01T02:57:10.681Z,28.58
2023-03-01T02:59:40.346Z,28.20
2023-03-01T03:02:08.698Z,28.20
2023-03-01T03:04:35.921Z,27.02
2023-03-01T03:07:02.835Z,28.58
2023-03-01T03:09:30.515Z,29.27
2023-03-01T03:11:57.367Z,28.95
2023-03-01T03:14:24.624Z,28.83
2023-03-01T03:16:52.299Z,29.35
2023-03-01T03:19:20.221Z,30.35
2023-03-01T03:21:47.197Z,29.45
2023-03-01T03:24:14.084Z,30.38
2023-03-01T03:26:41.278Z,29.15
2023-03-01T03:29:08.137Z,27.45
2023-03-01T03:31:35.519Z,30.15
2023-03-01T03:34:02.747Z,28.15
2023-03-01T03:36:29.804Z,26.83
2023-03-01T03:38:57.226Z,26.88
2023-03-01T03:41:24.047Z,28.88
2023-03-01T03:43:50.944Z,27.55
2023-03-01T03:46:18.447Z,27.95
2023-03-01T03:48:46.703Z,28.55
2023-03-01T03:51:15.925Z,28.20
2023-03-01T03:53:44.079Z,29.85
2023-03-01T03:56:11.285Z,28.73
2023-03-01T03:58:38.580Z,29.60
2023-03-01T04:01:05.524Z,28.70
2023-03-01T04:03:33.973Z,29.10
2023-03-01T04:06:01.914Z,30.10
2023-03-01T04:08:29.423Z,30.17
2023-03-01T04:11:25.133Z,29.95
2023-03-01T04:13:54.273Z,30.00
2023-03-01T04:16:21.395Z,29.55
2023-03-01T04:18:48.497Z,29.98
2023-03-01T04:21:15.813Z,30.35
2023-03-01T04:23:43.040Z,30.33
2023-03-01T04:26:09.988Z,30.00
2023-03-01T04:28:44.006Z,31.63
2023-03-01T04:31:19.508Z,29.27
2023-03-01T04:33:55.179Z,28.48
2023-03-01T04:36:28.242Z,28.20
2023-03-01T04:38:56.390Z,30.90
2023-03-01T04:41:25.109Z,29.70
2023-03-01T04:43:52.479Z,29.17
2023-03-01T04:46:21.719Z,27.83
2023-03-01T04:48:49.035Z,28.48
2023-03-01T04:51:16.890Z,27.95
2023-03-01T04:53:44.989Z,26.65
2023-03-01T04:56:12.384Z,28.17
2023-03-01T04:58:39.668Z,25.35
2023-03-01T05:01:18.420Z,28.05
2023-03-01T05:03:50.429Z,28.05
2023-03-01T05:06:19.061Z,27.90
2023-03-01T05:08:45.938Z,28.67
2023-03-01T05:11:13.209Z,28.50
2023-03-01T05:13:40.849Z,28.75
2023-03-01T05:16:12.379Z,26.55
2023-03-01T05:18:41.028Z,27.73
2023-03-01T05:21:13.136Z,29.10
2023-03-01T05:23:40.669Z,27.73
2023-03-01T05:26:16.078Z,28.73
2023-03-01T05:28:49.788Z,28.35
2023-03-01T05:31:16.808Z,28.63
2023-03-01T05:33:44.499Z,26.52
2023-03-01T05:36:11.581Z,27.35
2023-03-01T05:38:38.815Z,28.33
2023-03-01T05:41:05.702Z,26.88
2023-03-01T05:43:35.743Z,27.83
2023-03-01T05:46:02.981Z,26.73
2023-03-01T05:48:29.929Z,30.05
2023-03-01T05:51:01.420Z,30.85
2023-03-01T05:53:28.398Z,29.58
2023-03-01T05:55:55.592Z,30.08
2023-03-01T05:58:22.792Z,28.67
2023-03-01T06:00:50.244Z,29.17
2023-03-01T06:03:18.698Z,30.67
2023-03-01T06:05:46.147Z,30.95
2023-03-01T06:08:14.310Z,31.52
2023-03-01T06:10:41.767Z,32.80
2023-03-01T06:13:08.895Z,34.45
2023-03-01T06:15:36.239Z,34.85
2023-03-01T06:18:03.508Z,33.72
2023-03-01T06:20:31.217Z,35.53
2023-03-01T06:22:58.492Z,32.40
2023-03-01T06:25:27.405Z,33.22
2023-03-01T06:27:54.454Z,33.38
2023-03-01T06:30:23.123Z,32.83
2023-03-01T06:32:50.748Z,30.95
2023-03-01T06:35:19.919Z,32.10
2023-03-01T06:37:48.416Z,30.80
2023-03-01T06:40:16.377Z,32.20
2023-03-01T06:42:48.380Z,31.88
2023-03-01T06:45:15.554Z,28.50
2023-03-01T06:47:42.332Z,29.95
2023-03-01T06:50:10.309Z,32.65
2023-03-01T06:52:37.201Z,28.88
2023-03-01T06:55:04.521Z,29.05
2023-03-01T06:57:31.739Z,28.67
2023-03-01T06:59:58.713Z,34.20
2023-03-01T07:02:25.966Z,27.63
2023-03-01T07:04:53.440Z,27.83
2023-03-01T07:07:21.046Z,27.48
2023-03-01T07:09:48.349Z,29.88
2023-03-01T07:12:15.190Z,27.27
2023-03-01T07:14:42.541Z,29.35
2023-03-01T07:17:09.718Z,27.50
2023-03-01T07:19:36.592Z,27.58
2023-03-01T07:22:05.340Z,28.08
2023-03-01T07:24:32.677Z,28.55
2023-03-01T07:26:59.534Z,30.45
2023-03-01T07:29:26.346Z,28.55
2023-03-01T07:31:53.264Z,27.40
2023-03-01T07:34:20.208Z,27.48
2023-03-01T07:36:47.101Z,28.10
2023-03-01T07:39:13.973Z,27.27
2023-03-01T07:41:41.300Z,27.80
2023-03-01T07:44:08.294Z,26.27
2023-03-01T07:46:35.117Z,27.63
2023-03-01T07:49:02.118Z,27.35
2023-03-01T07:51:28.996Z,28.17
2023-03-01T07:53:55.872Z,25.77
2023-03-01T07:56:23.189Z,28.83
2023-03-01T07:58:51.186Z,39.00
2023-03-01T08:01:20.153Z,27.42
2023-03-01T08:03:47.126Z,27.00
2023-03-01T08:06:15.809Z,26.80
2023-03-01T08:08:42.857Z,25.60
2023-03-01T08:11:12.431Z,25.45
2023-03-01T08:13:39.689Z,24.60
2023-03-01T08:16:12.757Z,26.55
2023-03-01T08:18:39.770Z,26.85
2023-03-01T08:21:08.884Z,26.35
2023-03-01T08:23:35.991Z,26.13
2023-03-01T08:26:22.330Z,25.45
2023-03-01T08:28:50.863Z,23.42
2023-03-01T08:31:23.277Z,25.90
2023-03-01T08:33:56.334Z,23.70
2023-03-01T08:39:01.411Z,22.73
2023-03-01T08:41:28.799Z,21.83
2023-03-01T08:43:59.812Z,21.30
2023-03-01T08:46:32.485Z,20.42
2023-03-01T08:49:00.085Z,20.95
2023-03-01T08:51:27.622Z,19.17
2023-03-01T08:53:54.491Z,19.45
2023-03-01T08:56:21.376Z,18.50
2023-03-01T08:58:49.375Z,18.50
2023-03-01T09:01:18.588Z,19.15
2023-03-01T09:03:47.357Z,19.33
2023-03-01T09:06:15.241Z,19.52
2023-03-01T09:08:45.465Z,19.88
2023-03-01T09:11:16.320Z,17.80
2023-03-01T09:13:44.392Z,19.42
2023-03-01T09:16:14.230Z,19.70
2023-03-01T09:18:41.605Z,19.83
2023-03-01T09:21:18.332Z,19.55
2023-03-01T09:23:48.734Z,22.30
2023-03-01T09:26:22.891Z,20.27
2023-03-01T09:28:51.698Z,21.13
2023-03-01T09:31:20.266Z,21.35
2023-03-01T09:33:49.143Z,19.90
2023-03-01T09:36:19.082Z,20.75
2023-03-01T09:38:46.445Z,20.38
2023-03-01T09:41:19.115Z,20.02
2023-03-01T09:43:56.524Z,16.83
2023-03-01T09:46:24.994Z,19.60
2023-03-01T09:49:08.471Z,24.85
2023-03-01T09:51:37.116Z,18.60
2023-03-01T09:54:06.053Z,18.83
2023-03-01T09:56:54.097Z,14.70
2023-03-01T09:59:23.799Z,16.90
2023-03-01T10:02:02.416Z,16.17
2023-03-01T10:04:43.858Z,15.27
2023-03-01T10:07:10.724Z,15.35
2023-03-01T10:09:42.907Z,15.88
2023-03-01T10:12:24.506Z,15.23
2023-03-01T10:15:13.599Z,15.70
2023-03-01T10:17:52.598Z,14.77
2023-03-01T10:20:23.467Z,15.88
2023-03-01T10:22:56.206Z,16.27
2023-03-01T10:25:43.417Z,15.57
2023-03-01T10:28:40.437Z,15.82
2023-03-01T10:31:14.560Z,17.42
2023-03-01T10:33:42.461Z,16.52
2023-03-01T10:36:09.706Z,17.60
2023-03-01T10:38:55.387Z,14.85
2023-03-01T10:41:24.456Z,14.10
2023-03-01T10:43:56.605Z,13.93
2023-03-01T10:46:36.673Z,16.07
2023-03-01T10:49:17.320Z,18.33
2023-03-01T10:51:47.276Z,15.82
2023-03-01T10:54:30.804Z,23.02
2023-03-01T10:57:00.309Z,17.58
2023-03-01T10:59:39.063Z,16.27
2023-03-01T11:02:27.065Z,15.98
2023-03-01T11:05:16.372Z,14.73
2023-03-01T11:08:11.275Z,15.07
2023-03-01T11:10:38.171Z,13.02
2023-03-01T11:13:16.114Z,13.10
2023-03-01T11:15:44.357Z,12.95
2023-03-01T11:18:23.679Z,15.10
2023-03-01T11:20:56.974Z,14.05
2023-03-01T11:23:24.743Z,15.07
2023-03-01T11:26:01.212Z,14.80
2023-03-01T11:28:30.663Z,15.68
2023-03-01T11:31:09.105Z,15.68
2023-03-01T11:33:40.689Z,16.02
2023-03-01T11:36:16.798Z,15.57
2023-03-01T11:38:44.312Z,15.48
2023-03-01T11:41:43.820Z,15.15
2023-03-01T11:44:21.105Z,17.75
2023-03-01T11:47:15.198Z,14.30
2023-03-01T11:50:14.601Z,13.48
2023-03-01T11:52:53.556Z,15.82
2023-03-01T11:55:38.461Z,14.38
2023-03-01T11:58:08.333Z,13.95
2023-03-01T12:01:05.805Z,14.90
2023-03-01T12:03:43.988Z,15.27
2023-03-01T12:06:25.250Z,15.45
2023-03-01T12:09:01.181Z,15.38
2023-03-01T12:12:04.691Z,15.50
2023-03-01T12:14:53.368Z,14.65
2023-03-01T12:17:56.750Z,14.07
2023-03-01T12:20:43.952Z,15.18
2023-03-01T12:23:32.311Z,14.82
2023-03-01T12:26:21.619Z,18.67
2023-03-01T12:29:09.622Z,12.02
2023-03-01T12:31:55.174Z,11.13
2023-03-01T12:34:34.074Z,14.00
2023-03-01T12:37:27.003Z,12.93
2023-03-01T12:40:14.058Z,14.50
2023-03-01T12:42:58.635Z,14.10
2023-03-01T12:46:06.380Z,18.25
2023-03-01T12:48:39.998Z,14.60
2023-03-01T12:51:11.919Z,16.05
2023-03-01T12:53:47.817Z,15.65
2023-03-01T12:56:24.116Z,13.25
2023-03-01T12:59:18.503Z,13.45
2023-03-01T13:02:09.504Z,14.43
2023-03-01T13:05:01.461Z,12.25
2023-03-01T13:07:28.686Z,11.68
2023-03-01T13:10:31.978Z,11.95
2023-03-01T13:12:59.239Z,12.90
2023-03-01T13:15:40.800Z,12.32
2023-03-01T13:18:16.522Z,15.95
2023-03-01T13:20:43.394Z,12.68
2023-03-01T13:23:22.668Z,14.63
2023-03-01T13:26:01.599Z,14.82
2023-03-01T13:28:37.506Z,14.93
2023-03-01T13:31:08.121Z,12.77
2023-03-01T13:33:51.472Z,12.98
2023-03-01T13:36:31.006Z,12.98
2023-03-01T13:39:33.401Z,13.40
2023-03-01T13:42:01.438Z,13.70
2023-03-01T13:44:37.000Z,13.52
2023-03-01T13:47:15.025Z,13.18
2023-03-01T13:49:51.723Z,13.13
2023-03-01T13:53:00.413Z,12.80
2023-03-01T13:55:45.888Z,12.77
2023-03-01T13:58:23.890Z,12.43
2023-03-01T14:01:02.889Z,12.50
2023-03-01T14:03:31.550Z,12.93
2023-03-01T14:06:16.204Z,11.55
2023-03-01T14:08:45.661Z,13.15
2023-03-01T14:11:15.035Z,12.70
2023-03-01T14:14:16.216Z,12.93
2023-03-01T14:17:03.306Z,12.43
2023-03-01T14:19:33.908Z,12.77
2023-03-01T14:22:30.405Z,13.25
2023-03-01T14:25:03.589Z,12.20
2023-03-01T14:30:18.801Z,12.13
2023-03-01T14:32:58.321Z,12.70
2023-03-01T14:35:29.154Z,13.35
2023-03-01T14:37:56.509Z,12.18
2023-03-01T14:40:31.735Z,12.20
2023-03-01T14:43:02.500Z,11.93
2023-03-01T14:45:31.862Z,13.23
2023-03-01T14:48:05.270Z,12.65
2023-03-01T14:50:35.061Z,12.65
2023-03-01T14:53:05.949Z,13.43
2023-03-01T14:55:36.789Z,21.33
2023-03-01T14:58:12.828Z,13.80
2023-03-01T15:00:46.461Z,14.00
2023-03-01T15:03:18.738Z,24.95
2023-03-01T15:05:45.804Z,16.60
2023-03-01T15:08:26.135Z,13.73
2023-03-01T15:11:25.618Z,14.07
2023-03-01T15:13:53.778Z,13.77
2023-03-01T15:16:24.465Z,14.07
2023-03-01T15:18:59.245Z,14.52
2023-03-01T15:21:32.948Z,15.45
2023-03-01T15:24:06.862Z,16.10
2023-03-01T15:26:43.331Z,15.20
2023-03-01T15:29:19.365Z,14.82
2023-03-01T15:32:00.187Z,15.23
2023-03-01T15:34:31.198Z,15.30
2023-03-01T15:37:01.561Z,15.18
2023-03-01T15:39:29.332Z,16.02
2023-03-01T15:41:56.714Z,17.92
2023-03-01T15:44:42.738Z,16.80
2023-03-01T15:47:26.344Z,18.45
2023-03-01T15:49:55.842Z,19.77
2023-03-01T15:52:40.295Z,18.85
2023-03-01T15:55:21.262Z,19.23
2023-03-01T15:57:48.661Z,18.70
2023-03-01T16:00:18.898Z,18.45
2023-03-01T16:02:46.208Z,18.40
2023-03-01T16:05:24.256Z,19.80
2023-03-01T16:07:52.029Z,22.23
2023-03-01T16:10:20.071Z,19.83
2023-03-01T16:12:50.863Z,20.48
2023-03-01T16:15:31.988Z,22.13
2023-03-01T16:17:59.946Z,21.13
2023-03-01T16:20:30.418Z,21.10
2023-03-01T16:23:03.754Z,21.95
2023-03-01T16:25:32.427Z,21.10
2023-03-01T16:28:01.828Z,21.42
2023-03-01T16:30:28.867Z,20.70
2023-03-01T16:32:55.722Z,19.70
2023-03-01T16:35:24.425Z,21.02
2023-03-01T16:37:53.626Z,21.83
2023-03-01T16:40:22.961Z,20.02
2023-03-01T16:42:51.175Z,21.98
2023-03-01T16:45:24.324Z,33.67
2023-03-01T16:47:54.454Z,20.30
2023-03-01T16:50:23.066Z,20.20
2023-03-01T16:52:49.931Z,19.80
2023-03-01T16:55:17.344Z,21.15
2023-03-01T16:57:44.394Z,22.50
2023-03-01T17:00:14.218Z,21.23
2023-03-01T17:02:42.220Z,27.50
2023-03-01T17:05:12.063Z,23.05
2023-03-01T17:07:39.470Z,21.33
2023-03-01T17:10:09.186Z,21.80
2023-03-01T17:12:37.290Z,23.02
2023-03-01T17:15:05.508Z,22.70
2023-03-01T17:17:32.669Z,22.92
2023-03-01T17:19:59.952Z,24.90
2023-03-01T17:22:26.907Z,24.85
2023-03-01T17:24:54.255Z,28.75
2023-03-01T17:27:21.911Z,31.58
2023-03-01T17:29:49.814Z,31.88
2023-03-01T17:32:16.779Z,35.58
2023-03-01T17:34:44.157Z,33.50
2023-03-01T17:37:11.060Z,35.05
2023-03-01T17:39:38.281Z,34.70
2023-03-01T17:42:06.669Z,32.95
2023-03-01T17:44:34.764Z,32.88
2023-03-01T17:47:03.418Z,34.00
2023-03-01T17:49:30.928Z,31.80
2023-03-01T17:51:58.278Z,34.75
2023-03-01T17:54:25.674Z,32.20
2023-03-01T17:56:52.946Z,32.50
2023-03-01T17:59:20.246Z,32.97
2023-03-01T18:01:47.606Z,33.08
2023-03-01T18:04:14.953Z,32.67
2023-03-01T18:06:41.954Z,36.17
2023-03-01T18:09:09.556Z,38.65
2023-03-01T18:11:37.174Z,35.03
2023-03-01T18:14:04.793Z,33.42
2023-03-01T18:16:34.119Z,32.38
2023-03-01T18:19:01.748Z,33.13
2023-03-01T18:21:30.125Z,30.63
2023-03-01T18:23:59.515Z,29.63
2023-03-01T18:26:27.904Z,29.85
2023-03-01T18:28:58.280Z,27.52
2023-03-01T18:31:25.940Z,29.70
2023-03-01T18:33:57.978Z,30.55
2023-03-01T18:36:30.086Z,28.55
2023-03-01T18:38:57.217Z,29.30
2023-03-01T18:41:28.341Z,30.08
2023-03-01T18:43:57.126Z,32.88
2023-03-01T18:46:24.491Z,36.83
2023-03-01T18:48:52.884Z,36.70
2023-03-01T18:51:28.659Z,40.47
2023-03-01T18:53:59.349Z,44.53
2023-03-01T18:56:28.825Z,48.20
2023-03-01T18:58:56.529Z,49.97
2023-03-01T19:01:28.814Z,52.25
2023-03-01T19:03:58.979Z,48.17
2023-03-01T19:06:30.676Z,48.38
2023-03-01T19:08:58.007Z,49.92
2023-03-01T19:11:27.396Z,50.80
2023-03-01T19:13:54.807Z,51.40
2023-03-01T19:16:24.866Z,50.67
2023-03-01T19:18:51.922Z,61.65
2023-03-01T19:21:22.334Z,51.55
2023-03-01T19:23:49.578Z,51.75
2023-03-01T19:26:19.688Z,51.60
2023-03-01T19:28:47.502Z,49.35
2023-03-01T19:31:17.986Z,51.17
2023-03-01T19:33:45.230Z,50.13
2023-03-01T19:36:14.270Z,47.78
2023-03-01T19:38:42.874Z,48.63
2023-03-01T19:41:14.873Z,43.35
2023-03-01T19:43:43.067Z,39.58
2023-03-01T19:46:11.316Z,42.70
2023-03-01T19:48:40.517Z,39.88
2023-03-01T19:51:08.928Z,38.70
2023-03-01T19:53:36.991Z,38.25
2023-03-01T19:56:04.491Z,39.28
2023-03-01T19:58:32.454Z,40.17
2023-03-01T20:01:00.883Z,39.70
2023-03-01T20:03:33.674Z,38.20
2023-03-01T20:06:02.658Z,35.20
2023-03-01T20:08:30.815Z,34.10
2023-03-01T20:11:05.374Z,38.40
2023-03-01T20:13:32.852Z,32.78
2023-03-01T20:16:00.210Z,32.30
2023-03-01T20:18:28.177Z,33.60
2023-03-01T20:20:55.622Z,34.33
2023-03-01T20:23:23.343Z,31.98
2023-03-01T20:25:50.427Z,32.92
2023-03-01T20:28:18.617Z,31.92
2023-03-01T20:30:46.172Z,31.35
2023-03-01T20:33:14.121Z,30.65
2023-03-01T20:35:42.674Z,33.58
2023-03-01T20:38:10.139Z,32.42
2023-03-01T20:40:38.100Z,33.17
2023-03-01T20:43:05.500Z,34.70
2023-03-01T20:45:32.726Z,32.85
2023-03-01T20:47:59.585Z,31.40
2023-03-01T20:50:26.520Z,30.60
2023-03-01T20:52:53.840Z,32.05
2023-03-01T20:55:21.184Z,30.63
2023-03-01T20:57:48.417Z,30.60
2023-03-01T21:00:16.441Z,28.85
2023-03-01T21:02:44.123Z,28.73
2023-03-01T21:05:11.142Z,29.08
2023-03-01T21:07:38.410Z,28.50
2023-03-01T21:10:05.989Z,28.90
2023-03-01T21:12:33.325Z,27.50
2023-03-01T21:15:00.233Z,27.95
2023-03-01T21:17:27.559Z,29.70
2023-03-01T21:19:54.840Z,27.60
2023-03-01T21:22:21.756Z,29.73
2023-03-01T21:24:50.186Z,29.10
2023-03-01T21:27:18.550Z,30.75
2023-03-01T21:29:46.730Z,31.83
2023-03-01T21:32:14.899Z,32.83
2023-03-01T21:34:42.198Z,32.15
2023-03-01T21:37:10.500Z,33.60
2023-03-01T21:39:38.337Z,35.53
2023-03-01T21:42:05.782Z,33.25
2023-03-01T21:44:34.007Z,40.33
2023-03-01T21:47:01.754Z,37.95
2023-03-01T21:49:29.181Z,36.42
2023-03-01T21:51:56.423Z,37.17
2023-03-01T21:54:23.304Z,38.03
2023-03-01T21:56:51.088Z,38.38
2023-03-01T21:59:20.626Z,39.97
2023-03-01T22:01:48.521Z,41.45
2023-03-01T22:04:16.046Z,42.03
2023-03-01T22:06:45.661Z,39.97
2023-03-01T22:09:15.967Z,41.90
2023-03-01T22:11:49.009Z,40.75
2023-03-01T22:14:17.584Z,41.40
2023-03-01T22:16:45.689Z,41.42
2023-03-01T22:19:14.408Z,40.72
2023-03-01T22:21:43.029Z,44.15
2023-03-01T22:24:11.522Z,45.83
2023-03-01T22:26:43.668Z,42.97
2023-03-01T22:29:16.456Z,42.53
2023-03-01T22:31:43.852Z,42.30
2023-03-01T22:34:11.179Z,43.08
2023-03-01T22:36:39.456Z,40.45
2023-03-01T22:39:06.784Z,42.45
2023-03-01T22:41:44.286Z,41.83
2023-03-01T22:44:17.087Z,42.95
2023-03-01T22:46:44.754Z,42.63
2023-03-01T22:49:12.154Z,39.85
2023-03-01T22:51:41.689Z,41.95
2023-03-01T22:54:09.839Z,40.58
2023-03-01T22:56:38.118Z,39.58
2023-03-01T22:59:08.873Z,36.88
2023-03-01T23:01:37.151Z,36.75
2023-03-01T23:04:04.236Z,37.50
2023-03-01T23:06:31.779Z,36.45
2023-03-01T23:09:01.845Z,36.00
2023-03-01T23:11:29.602Z,36.20
2023-03-01T23:13:56.879Z,35.13
2023-03-01T23:16:27.204Z,35.30
2023-03-01T23:18:55.664Z,36.10
2023-03-01T23:21:23.181Z,35.53
2023-03-01T23:23:51.078Z,31.15
2023-03-01T23:26:18.965Z,65.53
2023-03-01T23:28:46.049Z,49.85
2023-03-01T23:31:15.394Z,37.08
2023-03-01T23:33:44.565Z,35.45
2023-03-01T23:36:21.754Z,35.10
2023-03-01T23:38:50.909Z,35.03
2023-03-01T23:41:22.812Z,36.63
2023-03-01T23:43:52.791Z,32.42
2023-03-01T23:46:22.043Z,34.63
2023-03-01T23:48:49.442Z,33.53
2023-03-01T23:51:18.068Z,34.05
2023-03-01T23:54:01.156Z,35.10
2023-03-01T23:56:36.733Z,33.60
2023-03-01T23:59:16.104Z,31.73
